Time,TemperatureF,DewpointF,PressureIn,WindDirection,WindDirectionDegrees,WindSpeedMPH,WindSpeedGustMPH,Humidity,HourlyPrecipIn,Conditions,Clouds,dailyrainin,SolarRadiationWatts/m^2,SoftwareType,DateUTC
2013-03-07 00:04:00,13.8,10.6,30.36,West,271,0.0,0.0,87,0.00,RA,,0.00,0.0,WeatherDisplay:10.37,2013-03-07 06:04:00,
2013-03-07 00:09:00,13.6,10.5,30.36,West,271,0.0,0.0,87,0.00,RA,,0.00,0.0,WeatherDisplay:10.37,2013-03-07 06:09:00,
2013-03-07 00:14:00,13.6,10.5,30.37,West,271,0.0,0.0,87,0.00,CLR,,0.00,0.0,WeatherDisplay:10.37,2013-03-07 06:14:00,
2013-03-07 00:19:00,13.5,10.4,30.37,West,271,0.0,0.0,87,0.00,CLR,,0.00,0.0,WeatherDisplay:10.37,2013-03-07 06:19:00,
2013-03-07 00:24:00,13.5,10.4,30.37,West,271,0.0,0.0,87,0.00,CLR,,0.00,0.0,WeatherDisplay:10.37,2013-03-07 06:24:00,
2013-03-07 00:29:00,13.5,10.4,30.37,West,271,0.0,0.0,87,0.00,CLR,,0.00,0.0,WeatherDisplay:10.37,2013-03-07 06:29:00,
2013-03-07 00:34:00,13.5,10.4,30.37,West,271,0.0,0.0,87,0.00,CLR,,0.00,0.0,WeatherDisplay:10.37,2013-03-07 06:34:00,
2013-03-07 00:39:00,13.3,10.2,30.37,West,271,0.0,0.0,87,0.00,CLR,,0.00,0.0,WeatherDisplay:10.37,2013-03-07 06:39:00,
2013-03-07 00:44:00,13.1,10.0,30.37,West,271,0.0,0.0,87,0.00,CLR,,0.00,0.0,WeatherDisplay:10.37,2013-03-07 06:44:00,
2013-03-07 00:49:00,12.9,9.8,30.38,West,271,0.0,0.0,87,0.00,CLR,,0.00,0.0,WeatherDisplay:10.37,2013-03-07 06:49:00,
2013-03-07 00:54:00,12.9,9.8,30.38,West,271,0.0,0.0,87,0.00,CLR,,0.00,0.0,WeatherDisplay:10.37,2013-03-07 06:54:00,
2013-03-07 00:59:00,12.8,9.9,30.38,West,271,0.0,0.0,88,0.00,CLR,,0.00,0.0,WeatherDisplay:10.37,2013-03-07 06:59:00,
2013-03-07 01:04:00,12.8,9.9,30.38,West,271,0.0,0.0,88,0.00,CLR,,0.00,0.0,WeatherDisplay:10.37,2013-03-07 07:04:00,
2013-03-07 01:09:00,13.1,10.2,30.38,West,271,0.0,0.0,88,0.00,CLR,,0.00,0.0,WeatherDisplay:10.37,2013-03-07 07:09:00,
2013-03-07 01:14:00,13.1,10.2,30.38,West,271,0.0,0.0,88,0.00,CLR,,0.00,0.0,WeatherDisplay:10.37,2013-03-07 07:14:00,
2013-03-07 01:19:00,13.1,10.2,30.38,West,271,0.0,0.0,88,0.00,CLR,,0.00,0.0,WeatherDisplay:10.37,2013-03-07 07:19:00,
2013-03-07 01:24:00,13.1,10.2,30.38,West,271,0.0,0.0,88,0.00,CLR,,0.00,0.0,WeatherDisplay:10.37,2013-03-07 07:24:00,
2013-03-07 01:29:00,13.1,10.2,30.38,West,271,0.0,0.0,88,0.00,CLR,,0.00,0.0,WeatherDisplay:10.37,2013-03-07 07:29:00,
2013-03-07 01:34:00,13.1,10.2,30.39,West,271,0.0,0.0,88,0.00,CLR,,0.00,0.0,WeatherDisplay:10.37,2013-03-07 07:34:00,
2013-03-07 01:39:00,12.9,10.0,30.39,West,271,0.0,0.0,88,0.00,CLR,,0.00,0.0,WeatherDisplay:10.37,2013-03-07 07:39:00,
2013-03-07 01:44:00,12.8,9.9,30.39,West,271,0.0,0.0,88,0.00,CLR,,0.00,0.0,WeatherDisplay:10.37,2013-03-07 07:44:00,
2013-03-07 01:49:00,12.8,9.9,30.39,West,271,0.0,0.0,88,0.00,CLR,,0.00,0.0,WeatherDisplay:10.37,2013-03-07 07:49:00,
2013-03-07 01:54:00,12.8,9.9,30.39,West,271,0.0,0.0,88,0.00,CLR,,0.00,0.0,WeatherDisplay:10.37,2013-03-07 07:54:00,
2013-03-07 01:59:00,12.8,9.9,30.39,West,271,0.0,0.0,88,0.00,CLR,,0.00,0.0,WeatherDisplay:10.37,2013-03-07 07:59:00,
2013-03-07 02:04:00,12.8,9.9,30.39,West,271,0.0,0.0,88,0.00,CLR,,0.00,0.0,WeatherDisplay:10.37,2013-03-07 08:04:00,
2013-03-07 02:09:00,12.8,9.9,30.39,West,271,0.0,0.0,88,0.00,CLR,,0.00,0.0,WeatherDisplay:10.37,2013-03-07 08:09:00,
2013-03-07 02:14:00,12.8,9.9,30.39,West,271,0.0,0.0,88,0.00,CLR,,0.00,0.0,WeatherDisplay:10.37,2013-03-07 08:14:00,
2013-03-07 02:19:00,12.8,9.9,30.39,West,271,0.0,0.0,88,0.00,CLR,,0.00,0.0,WeatherDisplay:10.37,2013-03-07 08:19:00,
2013-03-07 02:24:00,12.8,9.9,30.39,West,271,0.0,0.0,88,0.00,CLR,,0.00,0.0,WeatherDisplay:10.37,2013-03-07 08:24:00,
2013-03-07 02:29:00,12.8,9.9,30.39,West,271,0.0,0.0,88,0.00,CLR,,0.00,0.0,WeatherDisplay:10.37,2013-03-07 08:29:00,
2013-03-07 02:34:00,12.6,9.7,30.39,West,271,0.0,0.0,88,0.00,CLR,,0.00,0.0,WeatherDisplay:10.37,2013-03-07 08:34:00,
2013-03-07 02:39:00,12.4,9.5,30.39,West,271,0.0,0.0,88,0.00,CLR,,0.00,0.0,WeatherDisplay:10.37,2013-03-07 08:39:00,
2013-03-07 02:44:00,12.3,9.4,30.39,West,271,0.0,0.0,88,0.00,CLR,,0.00,0.0,WeatherDisplay:10.37,2013-03-07 08:44:00,
2013-03-07 02:49:00,12.4,9.8,30.39,West,271,0.0,0.0,89,0.00,CLR,,0.00,0.0,WeatherDisplay:10.37,2013-03-07 08:49:00,
2013-03-07 02:54:00,12.6,10.0,30.39,West,271,0.0,0.0,89,0.00,CLR,,0.00,0.0,WeatherDisplay:10.37,2013-03-07 08:54:00,
2013-03-07 02:59:00,12.6,10.0,30.38,West,271,0.0,0.0,89,0.00,CLR,,0.00,0.0,WeatherDisplay:10.37,2013-03-07 08:59:00,
2013-03-07 03:04:00,12.6,9.7,30.38,West,271,0.0,0.0,88,0.00,CLR,,0.00,0.0,WeatherDisplay:10.37,2013-03-07 09:04:00,
2013-03-07 03:09:00,12.3,9.4,30.38,West,271,0.0,0.0,88,0.00,CLR,,0.00,0.0,WeatherDisplay:10.37,2013-03-07 09:09:00,
2013-03-07 03:14:00,12.1,9.2,30.38,West,271,0.0,0.0,88,0.00,CLR,,0.00,0.0,WeatherDisplay:10.37,2013-03-07 09:14:00,
2013-03-07 03:19:00,11.9,9.0,30.38,West,271,0.0,0.0,88,0.00,CLR,,0.00,0.0,WeatherDisplay:10.37,2013-03-07 09:19:00,
2013-03-07 03:24:00,11.6,8.7,30.38,West,271,0.0,0.0,88,0.00,CLR,,0.00,0.0,WeatherDisplay:10.37,2013-03-07 09:24:00,
2013-03-07 03:29:00,11.2,8.1,30.38,West,271,0.0,0.0,87,0.00,CLR,,0.00,0.0,WeatherDisplay:10.37,2013-03-07 09:29:00,
2013-03-07 03:35:00,10.9,8.0,30.38,West,271,0.0,0.0,88,0.00,CLR,,0.00,0.0,WeatherDisplay:10.37,2013-03-07 09:35:00,
2013-03-07 03:40:00,10.7,7.8,30.38,West,271,0.0,0.0,88,0.00,CLR,,0.00,0.0,WeatherDisplay:10.37,2013-03-07 09:40:00,
2013-03-07 03:45:00,10.5,7.4,30.39,West,271,0.0,0.0,87,0.00,CLR,,0.00,0.0,WeatherDisplay:10.37,2013-03-07 09:45:00,
2013-03-07 03:50:00,10.5,7.4,30.39,West,271,0.0,0.0,87,0.00,CLR,,0.00,0.0,WeatherDisplay:10.37,2013-03-07 09:50:00,
2013-03-07 03:55:00,10.4,7.3,30.39,West,271,0.0,0.0,87,0.00,CLR,,0.00,0.0,WeatherDisplay:10.37,2013-03-07 09:55:00,
2013-03-07 04:00:00,10.2,7.1,30.39,West,271,0.0,0.0,87,0.00,CLR,,0.00,0.0,WeatherDisplay:10.37,2013-03-07 10:00:00,
2013-03-07 04:05:00,10.2,7.4,30.39,West,271,0.0,0.0,88,0.00,CLR,,0.00,0.0,WeatherDisplay:10.37,2013-03-07 10:05:00,
2013-03-07 04:10:00,10.0,6.9,30.39,West,271,0.0,0.0,87,0.00,CLR,,0.00,0.0,WeatherDisplay:10.37,2013-03-07 10:10:00,
2013-03-07 04:15:00,9.7,6.6,30.39,West,271,0.0,0.0,87,0.00,CLR,,0.00,0.0,WeatherDisplay:10.37,2013-03-07 10:15:00,
2013-03-07 04:20:00,9.3,6.2,30.39,West,271,0.0,0.0,87,0.00,CLR,,0.00,0.0,WeatherDisplay:10.37,2013-03-07 10:20:00,
2013-03-07 04:25:00,9.2,6.1,30.39,West,271,0.0,0.0,87,0.00,CLR,,0.00,0.0,WeatherDisplay:10.37,2013-03-07 10:25:00,
2013-03-07 04:30:00,8.8,5.7,30.40,West,271,0.0,0.0,87,0.00,CLR,,0.00,0.0,WeatherDisplay:10.37,2013-03-07 10:30:00,
2013-03-07 04:35:00,8.6,5.5,30.40,West,271,0.0,0.0,87,0.00,CLR,,0.00,0.0,WeatherDisplay:10.37,2013-03-07 10:35:00,
2013-03-07 04:40:00,8.1,5.0,30.40,West,271,0.0,0.0,87,0.00,CLR,,0.00,0.0,WeatherDisplay:10.37,2013-03-07 10:40:00,
2013-03-07 04:45:00,8.4,5.6,30.40,West,271,0.0,0.0,88,0.00,CLR,,0.00,0.0,WeatherDisplay:10.37,2013-03-07 10:45:00,
2013-03-07 04:50:00,8.8,6.0,30.40,West,271,0.0,0.0,88,0.00,CLR,,0.00,0.0,WeatherDisplay:10.37,2013-03-07 10:50:00,
2013-03-07 04:55:00,9.0,5.9,30.40,West,271,0.0,0.0,87,0.00,CLR,,0.00,0.0,WeatherDisplay:10.37,2013-03-07 10:55:00,
2013-03-07 05:00:00,9.2,6.4,30.40,West,271,0.0,0.0,88,0.00,CLR,,0.00,0.0,WeatherDisplay:10.37,2013-03-07 11:00:00,
2013-03-07 05:05:00,9.2,6.4,30.40,West,271,0.0,0.0,88,0.00,CLR,,0.00,0.0,WeatherDisplay:10.37,2013-03-07 11:05:00,
2013-03-07 05:10:00,9.3,6.5,30.40,West,271,0.0,0.0,88,0.00,CLR,,0.00,0.0,WeatherDisplay:10.37,2013-03-07 11:10:00,
2013-03-07 05:15:00,9.3,6.5,30.40,West,271,0.0,0.0,88,0.00,CLR,,0.00,0.0,WeatherDisplay:10.37,2013-03-07 11:15:00,
2013-03-07 05:20:00,9.3,6.2,30.40,West,271,0.0,0.0,87,0.00,CLR,,0.00,0.0,WeatherDisplay:10.37,2013-03-07 11:20:00,
2013-03-07 05:25:00,9.2,6.1,30.40,West,271,0.0,0.0,87,0.00,CLR,,0.00,0.0,WeatherDisplay:10.37,2013-03-07 11:25:00,
2013-03-07 05:30:00,9.0,5.9,30.41,West,271,0.0,0.0,87,0.00,CLR,,0.00,0.0,WeatherDisplay:10.37,2013-03-07 11:30:00,
2013-03-07 05:35:00,9.0,6.2,30.41,West,271,0.0,0.0,88,0.00,CLR,,0.00,0.0,WeatherDisplay:10.37,2013-03-07 11:35:00,
2013-03-07 05:40:00,9.0,5.9,30.41,West,271,0.0,0.0,87,0.00,CLR,,0.00,0.0,WeatherDisplay:10.37,2013-03-07 11:40:00,
2013-03-07 05:45:00,8.8,5.7,30.41,West,271,0.0,0.0,87,0.00,CLR,,0.00,0.0,WeatherDisplay:10.37,2013-03-07 11:45:00,
2013-03-07 05:50:00,8.6,5.5,30.41,West,271,0.0,0.0,87,0.00,CLR,,0.00,0.0,WeatherDisplay:10.37,2013-03-07 11:50:00,
2013-03-07 05:55:00,8.3,5.2,30.41,West,271,0.0,0.0,87,0.00,CLR,,0.00,0.0,WeatherDisplay:10.37,2013-03-07 11:55:00,
2013-03-07 06:00:00,8.1,5.0,30.42,West,271,0.0,0.0,87,0.00,CLR,,0.00,0.0,WeatherDisplay:10.37,2013-03-07 12:00:00,
2013-03-07 06:05:00,7.9,4.8,30.42,West,271,0.0,0.0,87,0.00,CLR,,0.00,0.0,WeatherDisplay:10.37,2013-03-07 12:05:00,
2013-03-07 06:10:00,7.7,4.6,30.42,West,271,0.0,0.0,87,0.00,CLR,,0.00,0.0,WeatherDisplay:10.37,2013-03-07 12:10:00,
2013-03-07 06:15:00,7.6,4.5,30.43,West,271,0.0,0.0,87,0.00,CLR,,0.00,0.0,WeatherDisplay:10.37,2013-03-07 12:15:00,
2013-03-07 06:20:00,7.4,4.3,30.43,West,271,0.0,0.0,87,0.00,CLR,,0.00,0.0,WeatherDisplay:10.37,2013-03-07 12:20:00,
2013-03-07 06:25:00,7.0,3.9,30.43,West,271,0.0,0.0,87,0.00,CLR,,0.00,0.0,WeatherDisplay:10.37,2013-03-07 12:25:00,
2013-03-07 06:31:00,6.7,3.4,30.43,West,271,0.0,0.0,86,0.00,CLR,,0.00,5.0,WeatherDisplay:10.37,2013-03-07 12:31:00,
2013-03-07 06:36:00,6.3,3.0,30.43,West,271,0.0,0.0,86,0.00,CLR,,0.00,9.0,WeatherDisplay:10.37,2013-03-07 12:36:00,
2013-03-07 06:46:00,6.0,2.7,30.44,West,271,0.0,0.0,86,0.00,CLR,,0.00,16.0,WeatherDisplay:10.37,2013-03-07 12:46:00,
2013-03-07 06:51:00,6.0,2.7,30.44,West,271,0.0,0.0,86,0.00,CLR,,0.00,21.0,WeatherDisplay:10.37,2013-03-07 12:51:00,
2013-03-07 06:56:00,5.8,2.5,30.44,West,271,0.0,0.0,86,0.00,CLR,,0.00,49.0,WeatherDisplay:10.37,2013-03-07 12:56:00,
2013-03-07 07:02:00,6.0,3.0,30.44,West,271,0.0,0.0,87,0.00,CLR,,0.00,69.0,WeatherDisplay:10.37,2013-03-07 13:02:00,
2013-03-07 07:07:00,6.2,3.2,30.44,West,271,0.0,0.0,87,0.00,CLR,,0.00,86.0,WeatherDisplay:10.37,2013-03-07 13:07:00,
2013-03-07 07:12:00,6.7,3.7,30.44,West,271,0.0,0.0,87,0.00,CLR,,0.00,100.0,WeatherDisplay:10.37,2013-03-07 13:12:00,
2013-03-07 07:17:00,7.0,3.9,30.44,West,271,0.0,0.0,87,0.00,CLR,,0.00,116.0,WeatherDisplay:10.37,2013-03-07 13:17:00,
2013-03-07 07:22:00,7.7,4.9,30.44,West,271,0.0,0.0,88,0.00,BKN,,0.00,144.0,WeatherDisplay:10.37,2013-03-07 13:22:00,
2013-03-07 07:27:00,8.8,6.2,30.44,West,271,0.0,0.0,89,0.00,BKN,,0.00,155.0,WeatherDisplay:10.37,2013-03-07 13:27:00,
2013-03-07 07:32:00,9.9,7.1,30.45,West,271,0.0,0.0,88,0.00,BKN,,0.00,169.0,WeatherDisplay:10.37,2013-03-07 13:32:00,
2013-03-07 07:37:00,10.0,7.2,30.45,West,271,0.0,0.0,88,0.00,BKN,,0.00,171.0,WeatherDisplay:10.37,2013-03-07 13:37:00,
2013-03-07 07:42:00,10.2,7.4,30.45,West,271,0.0,0.0,88,0.00,OVC,,0.00,162.0,WeatherDisplay:10.37,2013-03-07 13:42:00,
2013-03-07 07:48:00,10.7,7.8,30.45,West,271,0.0,0.0,88,0.00,OVC,,0.00,178.0,WeatherDisplay:10.37,2013-03-07 13:48:00,
2013-03-07 07:53:00,10.9,8.0,30.45,West,271,0.0,0.0,88,0.00,OVC,,0.00,192.0,WeatherDisplay:10.37,2013-03-07 13:53:00,
2013-03-07 07:58:00,11.2,8.3,30.45,West,271,0.0,0.0,88,0.00,OVC,,0.00,234.0,WeatherDisplay:10.37,2013-03-07 13:58:00,
2013-03-07 08:03:00,11.6,8.7,30.45,West,271,0.0,0.0,88,0.00,SCT,,0.00,178.0,WeatherDisplay:10.37,2013-03-07 14:03:00,
2013-03-07 08:08:00,12.1,9.2,30.45,West,271,0.0,0.0,88,0.00,SCT,,0.00,199.0,WeatherDisplay:10.37,2013-03-07 14:08:00,
2013-03-07 08:14:00,12.6,9.7,30.45,West,271,0.0,0.0,88,0.00,SCT,,0.00,199.0,WeatherDisplay:10.37,2013-03-07 14:14:00,
2013-03-07 08:19:00,12.9,10.0,30.46,West,271,0.0,0.0,88,0.00,SCT,,0.00,239.0,WeatherDisplay:10.37,2013-03-07 14:19:00,
2013-03-07 08:24:00,13.3,10.4,30.46,West,271,0.4,2.4,88,0.00,CLR,,0.00,192.0,WeatherDisplay:10.37,2013-03-07 14:24:00,
2013-03-07 08:29:00,13.8,10.9,30.46,West,271,0.0,0.0,88,0.00,CLR,,0.00,230.0,WeatherDisplay:10.37,2013-03-07 14:29:00,
2013-03-07 08:34:00,14.3,11.7,30.46,West,271,0.0,0.0,89,0.00,CLR,,0.00,209.0,WeatherDisplay:10.37,2013-03-07 14:34:00,
2013-03-07 08:39:00,15.6,12.9,30.46,West,271,0.0,0.0,89,0.00,CLR,,0.00,265.0,WeatherDisplay:10.37,2013-03-07 14:39:00,
2013-03-07 08:44:00,16.2,13.3,30.46,West,271,0.0,0.0,88,0.00,CLR,,0.00,246.0,WeatherDisplay:10.37,2013-03-07 14:44:00,
2013-03-07 08:49:00,16.9,13.7,30.46,West,271,0.0,0.0,87,0.00,CLR,,0.00,315.0,WeatherDisplay:10.37,2013-03-07 14:49:00,
2013-03-07 08:54:00,16.7,13.0,30.46,West,271,0.0,0.0,85,0.00,CLR,,0.00,285.0,WeatherDisplay:10.37,2013-03-07 14:54:00,
2013-03-07 08:59:00,16.4,12.4,30.46,West,271,0.1,1.2,84,0.00,CLR,,0.00,378.0,WeatherDisplay:10.37,2013-03-07 14:59:00,
2013-03-07 09:04:00,16.7,12.7,30.46,West,271,0.0,0.0,84,0.00,CLR,,0.00,441.0,WeatherDisplay:10.37,2013-03-07 15:04:00,
2013-03-07 09:09:00,18.0,14.3,30.46,West,271,0.0,0.0,85,0.00,CLR,,0.00,438.0,WeatherDisplay:10.37,2013-03-07 15:09:00,
2013-03-07 09:14:00,18.6,14.0,30.46,West,271,0.0,0.0,82,0.00,CLR,,0.00,459.0,WeatherDisplay:10.37,2013-03-07 15:14:00,
2013-03-07 09:19:00,18.4,13.5,30.46,West,271,0.0,0.0,81,0.00,CLR,,0.00,480.0,WeatherDisplay:10.37,2013-03-07 15:19:00,
2013-03-07 09:24:00,19.7,14.5,30.46,West,271,0.0,0.0,80,0.00,CLR,,0.00,527.0,WeatherDisplay:10.37,2013-03-07 15:24:00,
2013-03-07 09:29:00,20.2,14.4,30.46,NNE,21,0.1,2.3,78,0.00,CLR,,0.00,534.0,WeatherDisplay:10.37,2013-03-07 15:29:00,
2013-03-07 09:34:00,20.2,14.1,30.45,NNE,21,0.0,0.0,77,0.00,CLR,,0.00,550.0,WeatherDisplay:10.37,2013-03-07 15:34:00,
2013-03-07 09:39:00,20.2,14.1,30.45,NNE,21,0.0,0.0,77,0.00,CLR,,0.00,519.0,WeatherDisplay:10.37,2013-03-07 15:39:00,
2013-03-07 09:44:00,20.3,14.2,30.45,NNE,21,0.0,0.0,77,0.00,CLR,,0.00,575.0,WeatherDisplay:10.37,2013-03-07 15:44:00,
2013-03-07 09:49:00,21.0,14.6,30.45,NNE,21,0.1,1.2,76,0.00,CLR,,0.00,555.0,WeatherDisplay:10.37,2013-03-07 15:49:00,
2013-03-07 09:54:00,21.1,14.7,30.45,NNE,21,0.0,0.0,76,0.00,CLR,,0.00,513.0,WeatherDisplay:10.37,2013-03-07 15:54:00,
2013-03-07 09:59:00,21.1,14.4,30.45,West,265,0.7,2.4,75,0.00,CLR,,0.00,526.0,WeatherDisplay:10.37,2013-03-07 15:59:00,
2013-03-07 10:04:00,21.4,14.7,30.46,West,264,0.0,1.2,75,0.00,CLR,,0.00,584.0,WeatherDisplay:10.37,2013-03-07 16:04:00,
2013-03-07 10:09:00,21.6,14.6,30.46,WSW,254,1.8,3.6,74,0.00,CLR,,0.00,608.0,WeatherDisplay:10.37,2013-03-07 16:09:00,
2013-03-07 10:14:00,21.9,14.9,30.46,WSW,253,1.1,2.4,74,0.00,CLR,,0.00,613.0,WeatherDisplay:10.37,2013-03-07 16:14:00,
2013-03-07 10:19:00,22.4,15.1,30.46,WSW,253,0.0,1.2,73,0.00,CLR,,0.00,638.0,WeatherDisplay:10.37,2013-03-07 16:19:00,
2013-03-07 10:24:00,22.9,15.5,30.46,WSW,253,0.0,3.5,73,0.00,CLR,,0.00,643.0,WeatherDisplay:10.37,2013-03-07 16:24:00,
2013-03-07 10:29:00,23.0,15.6,30.46,WSW,252,0.4,3.6,73,0.00,CLR,,0.00,645.0,WeatherDisplay:10.37,2013-03-07 16:29:00,
2013-03-07 10:34:00,23.3,15.9,30.46,WSW,252,0.7,2.4,73,0.00,CLR,,0.00,659.0,WeatherDisplay:10.37,2013-03-07 16:34:00,
2013-03-07 10:41:00,23.8,16.1,30.46,WSW,251,0.0,0.0,72,0.00,CLR,,0.00,668.0,WeatherDisplay:10.37,2013-03-07 16:41:00,
2013-03-07 10:46:00,24.5,16.4,30.47,WSW,251,0.0,0.0,71,0.00,CLR,,0.00,679.0,WeatherDisplay:10.37,2013-03-07 16:46:00,
2013-03-07 10:51:00,25.6,16.8,30.47,WSW,253,0.0,1.2,69,0.00,CLR,,0.00,684.0,WeatherDisplay:10.37,2013-03-07 16:51:00,
2013-03-07 10:56:00,26.3,16.8,30.47,East,82,0.0,0.0,67,0.00,CLR,,0.00,691.0,WeatherDisplay:10.37,2013-03-07 16:56:00,
2013-03-07 11:01:00,25.8,16.7,30.46,SE,124,0.0,0.0,68,0.00,CLR,,0.00,698.0,WeatherDisplay:10.37,2013-03-07 17:01:00,
2013-03-07 11:06:00,26.1,17.0,30.46,ESE,112,0.1,4.6,68,0.00,CLR,,0.00,696.0,WeatherDisplay:10.37,2013-03-07 17:06:00,
2013-03-07 11:11:00,26.0,16.9,30.46,South,182,2.7,4.8,68,0.00,CLR,,0.00,696.0,WeatherDisplay:10.37,2013-03-07 17:11:00,
2013-03-07 11:16:00,25.8,16.7,30.45,South,182,4.5,6.0,68,0.00,CLR,,0.00,708.0,WeatherDisplay:10.37,2013-03-07 17:16:00,
2013-03-07 11:21:00,26.1,17.0,30.45,South,185,4.4,4.8,68,0.00,CLR,,0.00,714.0,WeatherDisplay:10.37,2013-03-07 17:21:00,
2013-03-07 11:26:00,26.7,17.6,30.45,South,185,0.0,1.2,68,0.00,CLR,,0.00,717.0,WeatherDisplay:10.37,2013-03-07 17:26:00,
2013-03-07 11:31:00,26.7,16.9,30.46,South,185,2.2,3.6,66,0.00,CLR,,0.00,721.0,WeatherDisplay:10.37,2013-03-07 17:31:00,
2013-03-07 11:36:00,27.0,17.1,30.46,South,185,3.6,4.8,66,0.00,CLR,,0.00,726.0,WeatherDisplay:10.37,2013-03-07 17:36:00,
2013-03-07 11:41:00,27.3,17.4,30.46,SSW,198,1.4,3.6,66,0.00,CLR,,0.00,731.0,WeatherDisplay:10.37,2013-03-07 17:41:00,
2013-03-07 11:46:00,27.5,17.6,30.46,SSW,201,2.1,4.8,66,0.00,CLR,,0.00,673.0,WeatherDisplay:10.37,2013-03-07 17:46:00,
2013-03-07 11:52:00,27.8,17.9,30.46,South,187,4.4,6.9,66,0.00,CLR,,0.00,717.0,WeatherDisplay:10.37,2013-03-07 17:52:00,
2013-03-07 11:57:00,27.9,18.0,30.46,SSW,211,3.1,4.6,66,0.00,CLR,,0.00,712.0,WeatherDisplay:10.37,2013-03-07 17:57:00,
2013-03-07 12:02:00,28.4,18.1,30.46,SSW,213,3.2,4.8,65,0.00,CLR,,0.00,686.0,WeatherDisplay:10.37,2013-03-07 18:02:00,
2013-03-07 12:07:00,28.4,18.5,30.46,SSW,194,3.2,4.6,66,0.00,CLR,,0.00,715.0,WeatherDisplay:10.37,2013-03-07 18:07:00,
2013-03-07 12:12:00,28.8,18.5,30.46,South,175,4.6,6.0,65,0.00,CLR,,0.00,717.0,WeatherDisplay:10.37,2013-03-07 18:12:00,
2013-03-07 12:17:00,29.0,18.0,30.46,South,178,2.8,4.8,63,0.00,CLR,,0.00,680.0,WeatherDisplay:10.37,2013-03-07 18:17:00,
2013-03-07 12:22:00,29.5,18.4,30.46,South,170,0.8,6.0,63,0.00,CLR,,0.00,686.0,WeatherDisplay:10.37,2013-03-07 18:22:00,
2013-03-07 12:27:00,29.4,17.6,30.46,South,171,0.0,5.0,61,0.00,CLR,,0.00,742.0,WeatherDisplay:10.37,2013-03-07 18:27:00,
2013-03-07 12:32:00,29.9,18.4,30.46,South,171,0.0,1.0,62,0.00,CLR,,0.00,742.0,WeatherDisplay:10.37,2013-03-07 18:32:00,
2013-03-07 12:37:00,30.6,18.0,30.46,South,171,4.1,6.0,59,0.00,CLR,,0.00,670.0,WeatherDisplay:10.37,2013-03-07 18:37:00,
2013-03-07 12:42:00,30.3,18.1,30.46,South,171,1.5,4.8,60,0.00,CLR,,0.00,703.0,WeatherDisplay:10.37,2013-03-07 18:42:00,
2013-03-07 12:47:00,30.6,18.0,30.46,South,171,0.0,0.0,59,0.00,CLR,,0.00,682.0,WeatherDisplay:10.37,2013-03-07 18:47:00,
2013-03-07 12:52:00,30.6,17.6,30.46,South,171,1.0,2.4,58,0.00,CLR,,0.00,710.0,WeatherDisplay:10.37,2013-03-07 18:52:00,
2013-03-07 12:57:00,31.6,18.5,30.46,South,171,1.5,2.4,58,0.00,CLR,,0.00,694.0,WeatherDisplay:10.37,2013-03-07 18:57:00,
2013-03-07 13:02:00,31.5,17.6,30.46,South,171,3.7,4.8,56,0.00,CLR,,0.00,673.0,WeatherDisplay:10.37,2013-03-07 19:02:00,
2013-03-07 13:07:00,31.9,18.4,30.46,South,171,3.2,4.8,57,0.01,RA,,0.01,701.0,WeatherDisplay:10.37,2013-03-07 19:07:00,
2013-03-07 13:12:00,31.9,18.8,30.46,SSW,207,0.5,3.6,58,0.01,CLR,,0.01,686.0,WeatherDisplay:10.37,2013-03-07 19:12:00,
2013-03-07 13:17:00,32.4,18.4,30.46,South,190,4.8,7.2,56,0.01,CLR,,0.01,635.0,WeatherDisplay:10.37,2013-03-07 19:17:00,
2013-03-07 13:23:00,31.9,18.0,30.46,West,268,0.0,3.5,56,0.01,CLR,,0.01,563.0,WeatherDisplay:10.37,2013-03-07 19:23:00,
2013-03-07 13:28:00,32.1,17.7,30.46,WSW,258,0.8,4.6,55,0.02,RA,,0.02,643.0,WeatherDisplay:10.37,2013-03-07 19:28:00,
2013-03-07 13:33:00,32.4,18.4,30.46,WSW,252,4.6,6.0,56,0.02,RA,,0.02,568.0,WeatherDisplay:10.37,2013-03-07 19:33:00,
2013-03-07 13:38:00,32.7,18.3,30.46,WSW,250,3.3,6.0,55,0.02,CLR,,0.02,533.0,WeatherDisplay:10.37,2013-03-07 19:38:00,
2013-03-07 13:43:00,32.1,17.3,30.46,SSW,209,2.2,4.8,54,0.02,CLR,,0.02,529.0,WeatherDisplay:10.37,2013-03-07 19:43:00,
2013-03-07 13:48:00,32.1,17.3,30.45,SSW,201,0.1,2.3,54,0.02,CLR,,0.02,429.0,WeatherDisplay:10.37,2013-03-07 19:48:00,
2013-03-07 13:53:00,32.1,17.3,30.45,SSW,205,1.4,3.6,54,0.02,CLR,,0.02,578.0,WeatherDisplay:10.37,2013-03-07 19:53:00,
2013-03-07 13:58:00,32.5,17.2,30.45,SSW,209,0.9,3.6,53,0.02,CLR,,0.02,543.0,WeatherDisplay:10.37,2013-03-07 19:58:00,
2013-03-07 14:03:00,32.5,16.8,30.45,SW,215,2.6,3.6,52,0.02,CLR,,0.02,475.0,WeatherDisplay:10.37,2013-03-07 20:03:00,
2013-03-07 14:08:00,32.8,17.5,30.45,SW,215,0.0,0.0,53,0.01,CLR,,0.02,540.0,WeatherDisplay:10.37,2013-03-07 20:08:00,
2013-03-07 14:13:00,33.1,17.4,30.45,SSE,156,1.6,4.8,52,0.01,CLR,,0.02,476.0,WeatherDisplay:10.37,2013-03-07 20:13:00,
2013-03-07 14:18:00,33.2,17.9,30.45,SSE,156,0.0,0.0,53,0.02,RA,,0.03,541.0,WeatherDisplay:10.37,2013-03-07 20:18:00,
2013-03-07 14:23:00,33.2,17.5,30.45,SSE,156,2.4,4.8,52,0.02,RA,,0.03,545.0,WeatherDisplay:10.37,2013-03-07 20:23:00,
2013-03-07 14:28:00,33.4,17.2,30.45,SSE,157,0.0,0.0,51,0.01,CLR,,0.03,501.0,WeatherDisplay:10.37,2013-03-07 20:28:00,
2013-03-07 14:33:00,34.1,18.3,30.45,SSE,157,0.0,1.2,52,0.01,CLR,,0.03,490.0,WeatherDisplay:10.37,2013-03-07 20:33:00,
2013-03-07 14:38:00,33.7,17.0,30.45,SSE,157,4.0,4.8,50,0.01,CLR,,0.03,501.0,WeatherDisplay:10.37,2013-03-07 20:38:00,
2013-03-07 14:43:00,33.5,16.8,30.45,SSE,157,0.1,4.6,50,0.01,CLR,,0.03,531.0,WeatherDisplay:10.37,2013-03-07 20:43:00,
2013-03-07 14:48:00,34.0,17.3,30.45,SSE,157,4.0,6.0,50,0.01,CLR,,0.03,578.0,WeatherDisplay:10.37,2013-03-07 20:48:00,
2013-03-07 14:53:00,34.0,17.3,30.45,South,185,3.4,4.8,50,0.02,RA,,0.05,540.0,WeatherDisplay:10.37,2013-03-07 20:53:00,
2013-03-07 14:58:00,33.7,17.5,30.45,SSW,194,3.4,5.8,51,0.02,RA,,0.05,515.0,WeatherDisplay:10.37,2013-03-07 20:58:00,
2013-03-07 15:03:00,34.0,17.3,30.45,SSW,194,1.7,3.6,50,0.02,CLR,,0.05,492.0,WeatherDisplay:10.37,2013-03-07 21:03:00,
2013-03-07 15:08:00,34.1,17.8,30.45,South,188,2.7,6.0,51,0.02,CLR,,0.05,399.0,WeatherDisplay:10.37,2013-03-07 21:08:00,
2013-03-07 15:13:00,33.5,17.7,30.45,SSW,209,6.5,7.2,52,0.02,CLR,,0.05,357.0,WeatherDisplay:10.37,2013-03-07 21:13:00,
2013-03-07 15:18:00,33.5,18.2,30.45,SSW,196,3.3,5.8,53,0.01,CLR,,0.05,392.0,WeatherDisplay:10.37,2013-03-07 21:18:00,
2013-03-07 15:23:00,33.7,17.9,30.45,South,185,4.7,6.0,52,0.01,CLR,,0.05,348.0,WeatherDisplay:10.37,2013-03-07 21:23:00,
2013-03-07 15:28:00,33.8,18.5,30.45,South,185,2.6,3.6,53,0.01,CLR,,0.05,380.0,WeatherDisplay:10.37,2013-03-07 21:28:00,
2013-03-07 15:33:00,34.0,18.6,30.45,SSW,199,1.2,4.6,53,0.01,CLR,,0.05,399.0,WeatherDisplay:10.37,2013-03-07 21:33:00,
2013-03-07 15:38:00,33.8,18.5,30.45,SSW,199,1.7,3.6,53,0.01,CLR,,0.05,288.0,WeatherDisplay:10.37,2013-03-07 21:38:00,
2013-03-07 15:43:00,34.0,18.2,30.45,SSW,199,3.7,6.0,52,0.01,CLR,,0.05,366.0,WeatherDisplay:10.37,2013-03-07 21:43:00,
2013-03-07 15:48:00,34.1,18.3,30.44,SSW,199,0.0,1.2,52,0.01,CLR,,0.05,341.0,WeatherDisplay:10.37,2013-03-07 21:48:00,
2013-03-07 15:53:00,34.1,17.8,30.44,SSW,199,1.3,3.6,51,0.00,CLR,,0.05,253.0,WeatherDisplay:10.37,2013-03-07 21:53:00,
2013-03-07 15:58:00,34.3,18.0,30.44,SSW,199,0.0,0.0,51,0.00,CLR,,0.05,306.0,WeatherDisplay:10.37,2013-03-07 21:58:00,
2013-03-07 16:03:00,34.6,17.8,30.44,SSW,199,1.5,3.6,50,0.00,CLR,,0.05,341.0,WeatherDisplay:10.37,2013-03-07 22:03:00,
2013-03-07 16:08:00,34.4,18.1,30.44,SSW,199,2.4,3.6,51,0.00,CLR,,0.05,332.0,WeatherDisplay:10.37,2013-03-07 22:08:00,
2013-03-07 16:13:00,34.3,17.6,30.44,SSW,199,3.0,6.0,50,0.00,CLR,,0.05,315.0,WeatherDisplay:10.37,2013-03-07 22:13:00,
2013-03-07 16:18:00,34.6,17.8,30.44,SSW,199,0.0,0.0,50,0.00,CLR,,0.05,313.0,WeatherDisplay:10.37,2013-03-07 22:18:00,
2013-03-07 16:23:00,34.4,17.7,30.44,SSW,199,3.6,3.6,50,0.00,CLR,,0.05,232.0,WeatherDisplay:10.37,2013-03-07 22:23:00,
2013-03-07 16:28:00,34.6,17.8,30.44,SSW,199,0.0,1.2,50,0.00,CLR,,0.05,241.0,WeatherDisplay:10.37,2013-03-07 22:28:00,
2013-03-07 16:33:00,34.6,18.8,30.43,SSW,199,0.3,1.2,52,0.00,CLR,,0.05,202.0,WeatherDisplay:10.37,2013-03-07 22:33:00,
2013-03-07 16:38:00,34.4,18.1,30.43,SSW,199,0.0,0.0,51,0.00,CLR,,0.05,137.0,WeatherDisplay:10.37,2013-03-07 22:38:00,
2013-03-07 16:43:00,34.4,18.1,30.43,SSW,199,0.0,1.2,51,0.00,CLR,,0.05,139.0,WeatherDisplay:10.37,2013-03-07 22:43:00,
2013-03-07 16:48:00,34.3,17.6,30.43,SSW,199,3.3,4.6,50,0.00,CLR,,0.05,137.0,WeatherDisplay:10.37,2013-03-07 22:48:00,
2013-03-07 16:53:00,34.3,18.0,30.43,SSW,211,0.1,1.2,51,0.00,CLR,,0.05,121.0,WeatherDisplay:10.37,2013-03-07 22:53:00,
2013-03-07 16:58:00,34.3,18.0,30.43,SSW,211,0.5,3.6,51,0.00,CLR,,0.05,86.0,WeatherDisplay:10.37,2013-03-07 22:58:00,
2013-03-07 17:03:00,34.1,17.8,30.43,SSW,211,0.0,0.0,51,0.00,CLR,,0.05,98.0,WeatherDisplay:10.37,2013-03-07 23:03:00,
2013-03-07 17:08:00,34.1,17.8,30.43,SSW,211,0.0,2.4,51,0.00,CLR,,0.05,65.0,WeatherDisplay:10.37,2013-03-07 23:08:00,
2013-03-07 17:13:00,34.0,17.7,30.43,SSW,211,0.0,0.0,51,0.00,CLR,,0.05,62.0,WeatherDisplay:10.37,2013-03-07 23:13:00,
2013-03-07 17:18:00,34.0,18.2,30.43,SSW,211,0.0,0.0,52,0.00,CLR,,0.05,47.0,WeatherDisplay:10.37,2013-03-07 23:18:00,
2013-03-07 17:23:00,34.1,18.3,30.43,SSW,211,0.0,0.0,52,0.00,CLR,,0.05,39.0,WeatherDisplay:10.37,2013-03-07 23:23:00,
2013-03-07 17:28:00,34.0,18.2,30.43,SSW,211,0.0,0.0,52,0.00,CLR,,0.05,28.0,WeatherDisplay:10.37,2013-03-07 23:28:00,
2013-03-07 17:33:00,33.7,17.9,30.44,SSW,211,0.0,0.0,52,0.00,CLR,,0.05,21.0,WeatherDisplay:10.37,2013-03-07 23:33:00,
2013-03-07 17:38:00,33.2,17.9,30.44,SSW,211,0.0,0.0,53,0.00,CLR,,0.05,16.0,WeatherDisplay:10.37,2013-03-07 23:38:00,
2013-03-07 17:43:00,33.1,17.8,30.44,SSW,211,0.0,0.0,53,0.00,CLR,,0.05,12.0,WeatherDisplay:10.37,2013-03-07 23:43:00,
2013-03-07 17:48:00,32.8,18.0,30.44,SSW,211,0.0,0.0,54,0.00,CLR,,0.05,9.0,WeatherDisplay:10.37,2013-03-07 23:48:00,
2013-03-07 17:53:00,32.5,17.7,30.44,SSW,211,0.0,0.0,54,0.00,CLR,,0.05,0.0,WeatherDisplay:10.37,2013-03-07 23:53:00,
2013-03-07 17:58:00,32.1,17.7,30.44,SSW,211,0.0,0.0,55,0.00,CLR,,0.05,0.0,WeatherDisplay:10.37,2013-03-07 23:58:00,
2013-03-07 18:03:00,31.8,17.5,30.44,SSW,211,0.0,0.0,55,0.00,CLR,,0.05,0.0,WeatherDisplay:10.37,2013-03-08 00:03:00,
2013-03-07 18:08:00,31.5,17.6,30.44,SSW,211,0.0,0.0,56,0.00,CLR,,0.05,0.0,WeatherDisplay:10.37,2013-03-08 00:08:00,
2013-03-07 18:13:00,31.2,17.7,30.44,SSW,211,0.0,0.0,57,0.00,CLR,,0.05,0.0,WeatherDisplay:10.37,2013-03-08 00:13:00,
2013-03-07 18:18:00,31.0,17.9,30.44,SSW,211,0.0,0.0,58,0.00,CLR,,0.05,0.0,WeatherDisplay:10.37,2013-03-08 00:18:00,
2013-03-07 18:24:00,30.7,18.1,30.44,SSW,211,0.0,0.0,59,0.00,CLR,,0.05,0.0,WeatherDisplay:10.37,2013-03-08 00:24:00,
2013-03-07 18:29:00,30.6,18.3,30.44,SSW,211,0.0,0.0,60,0.00,CLR,,0.05,0.0,WeatherDisplay:10.37,2013-03-08 00:29:00,
2013-03-07 18:34:00,30.4,18.5,30.44,SSW,211,0.0,0.0,61,0.00,CLR,,0.05,0.0,WeatherDisplay:10.37,2013-03-08 00:34:00,
2013-03-07 18:39:00,29.8,18.7,30.44,SSW,211,0.0,0.0,63,0.00,CLR,,0.05,0.0,WeatherDisplay:10.37,2013-03-08 00:39:00,
2013-03-07 18:44:00,29.5,18.4,30.44,SSW,211,0.0,0.0,63,0.00,CLR,,0.05,0.0,WeatherDisplay:10.37,2013-03-08 00:44:00,
2013-03-07 18:49:00,29.1,18.1,30.44,SSW,211,0.0,0.0,63,0.00,CLR,,0.05,0.0,WeatherDisplay:10.37,2013-03-08 00:49:00,
2013-03-07 18:54:00,29.0,18.0,30.44,SSW,211,0.0,1.2,63,0.00,CLR,,0.05,0.0,WeatherDisplay:10.37,2013-03-08 00:54:00,
2013-03-07 18:59:00,29.0,18.3,30.44,SSW,206,0.0,0.0,64,0.00,CLR,,0.05,0.0,WeatherDisplay:10.37,2013-03-08 00:59:00,
2013-03-07 19:05:00,29.0,18.3,30.44,SSW,206,0.0,0.0,64,0.00,CLR,,0.05,0.0,WeatherDisplay:10.37,2013-03-08 01:05:00,
2013-03-07 19:10:00,28.7,18.8,30.44,SSW,206,0.0,0.0,66,0.00,CLR,,0.05,0.0,WeatherDisplay:10.37,2013-03-08 01:10:00,
2013-03-07 19:15:00,28.4,18.5,30.45,SSW,206,0.0,0.0,66,0.00,CLR,,0.05,0.0,WeatherDisplay:10.37,2013-03-08 01:15:00,
2013-03-07 19:20:00,28.2,18.3,30.45,SSW,206,0.0,0.0,66,0.00,CLR,,0.05,0.0,WeatherDisplay:10.37,2013-03-08 01:20:00,
2013-03-07 19:25:00,28.1,18.2,30.45,SSW,206,0.0,0.0,66,0.00,CLR,,0.05,0.0,WeatherDisplay:10.37,2013-03-08 01:25:00,
2013-03-07 19:30:00,27.9,18.0,30.45,SSW,206,0.0,0.0,66,0.00,CLR,,0.05,0.0,WeatherDisplay:10.37,2013-03-08 01:30:00,
2013-03-07 19:35:00,27.9,18.0,30.45,SSW,206,0.0,0.0,66,0.00,CLR,,0.05,0.0,WeatherDisplay:10.37,2013-03-08 01:35:00,
2013-03-07 19:41:00,27.8,17.9,30.45,SSW,206,0.0,0.0,66,0.00,CLR,,0.05,0.0,WeatherDisplay:10.37,2013-03-08 01:41:00,
2013-03-07 19:46:00,27.8,17.9,30.45,SSW,206,0.0,0.0,66,0.00,CLR,,0.05,0.0,WeatherDisplay:10.37,2013-03-08 01:46:00,
2013-03-07 19:51:00,27.6,18.1,30.45,SSW,206,0.0,1.2,67,0.00,CLR,,0.05,0.0,WeatherDisplay:10.37,2013-03-08 01:51:00,
2013-03-07 19:56:00,27.5,18.0,30.45,SSW,206,0.0,0.0,67,0.00,CLR,,0.05,0.0,WeatherDisplay:10.37,2013-03-08 01:56:00,
2013-03-07 20:01:00,27.5,18.0,30.45,SSW,194,0.2,2.4,67,0.00,CLR,,0.05,0.0,WeatherDisplay:10.37,2013-03-08 02:01:00,
2013-03-07 20:06:00,27.3,17.8,30.45,East,101,0.8,4.6,67,0.00,CLR,,0.05,0.0,WeatherDisplay:10.37,2013-03-08 02:06:00,
2013-03-07 20:11:00,27.3,18.1,30.45,East,98,0.8,4.8,68,0.00,CLR,,0.05,0.0,WeatherDisplay:10.37,2013-03-08 02:11:00,
2013-03-07 20:16:00,27.2,18.0,30.45,SE,142,0.0,2.3,68,0.00,CLR,,0.05,0.0,WeatherDisplay:10.37,2013-03-08 02:16:00,
2013-03-07 20:21:00,27.0,18.2,30.45,SE,124,2.2,5.8,69,0.00,CLR,,0.05,0.0,WeatherDisplay:10.37,2013-03-08 02:21:00,
2013-03-07 20:26:00,26.7,18.2,30.45,SE,124,0.6,2.4,70,0.00,CLR,,0.05,0.0,WeatherDisplay:10.37,2013-03-08 02:26:00,
2013-03-07 20:31:00,26.6,18.1,30.45,SE,140,0.1,1.2,70,0.00,CLR,,0.05,0.0,WeatherDisplay:10.37,2013-03-08 02:31:00,
2013-03-07 20:36:00,26.4,17.9,30.45,SE,135,0.5,4.8,70,0.00,CLR,,0.05,0.0,WeatherDisplay:10.37,2013-03-08 02:36:00,
2013-03-07 20:41:00,26.3,18.2,30.45,SE,137,0.3,4.6,71,0.00,CLR,,0.05,0.0,WeatherDisplay:10.37,2013-03-08 02:41:00,
2013-03-07 20:46:00,26.1,18.0,30.45,SE,137,0.9,2.4,71,0.00,CLR,,0.05,0.0,WeatherDisplay:10.37,2013-03-08 02:46:00,
2013-03-07 20:51:00,25.8,18.0,30.45,SE,137,0.0,0.0,72,0.00,CLR,,0.05,0.0,WeatherDisplay:10.37,2013-03-08 02:51:00,
2013-03-07 20:56:00,25.7,18.2,30.45,SE,137,0.3,2.4,73,0.00,CLR,,0.05,0.0,WeatherDisplay:10.37,2013-03-08 02:56:00,
2013-03-07 21:01:00,25.4,17.9,30.44,SE,137,0.0,0.0,73,0.00,CLR,,0.05,0.0,WeatherDisplay:10.37,2013-03-08 03:01:00,
2013-03-07 21:06:00,25.3,17.9,30.44,SE,137,0.0,0.0,73,0.00,CLR,,0.05,0.0,WeatherDisplay:10.37,2013-03-08 03:06:00,
2013-03-07 21:11:00,25.3,18.2,30.44,SE,137,0.0,0.0,74,0.00,CLR,,0.05,0.0,WeatherDisplay:10.37,2013-03-08 03:11:00,
2013-03-07 21:16:00,25.1,18.0,30.45,SE,137,0.0,0.0,74,0.00,CLR,,0.05,0.0,WeatherDisplay:10.37,2013-03-08 03:16:00,
2013-03-07 21:21:00,25.0,17.9,30.45,SE,137,0.0,0.0,74,0.00,CLR,,0.05,0.0,WeatherDisplay:10.37,2013-03-08 03:21:00,
2013-03-07 21:26:00,24.8,18.0,30.45,SE,137,0.7,2.4,75,0.00,CLR,,0.05,0.0,WeatherDisplay:10.37,2013-03-08 03:26:00,
2013-03-07 21:31:00,24.7,17.9,30.44,SE,137,0.2,1.2,75,0.00,CLR,,0.05,0.0,WeatherDisplay:10.37,2013-03-08 03:31:00,
2013-03-07 21:36:00,24.5,18.0,30.44,SE,137,0.0,0.0,76,0.00,CLR,,0.05,0.0,WeatherDisplay:10.37,2013-03-08 03:36:00,
2013-03-07 21:41:00,24.4,17.9,30.44,SE,137,0.0,0.0,76,0.00,CLR,,0.05,0.0,WeatherDisplay:10.37,2013-03-08 03:41:00,
2013-03-07 21:46:00,24.4,17.9,30.44,East,99,0.3,2.4,76,0.00,CLR,,0.05,0.0,WeatherDisplay:10.37,2013-03-08 03:46:00,
2013-03-07 21:51:00,24.4,17.9,30.44,East,99,0.0,0.0,76,0.00,CLR,,0.05,0.0,WeatherDisplay:10.37,2013-03-08 03:51:00,
2013-03-07 21:56:00,24.4,17.9,30.44,East,99,0.0,0.0,76,0.00,CLR,,0.05,0.0,WeatherDisplay:10.37,2013-03-08 03:56:00,
2013-03-07 22:01:00,24.2,18.0,30.43,East,99,0.0,4.6,77,0.00,CLR,,0.05,0.0,WeatherDisplay:10.37,2013-03-08 04:01:00,
2013-03-07 22:06:00,24.1,17.9,30.43,East,101,1.9,4.8,77,0.00,CLR,,0.05,0.0,WeatherDisplay:10.37,2013-03-08 04:06:00,
2013-03-07 22:11:00,24.1,17.9,30.43,East,101,0.1,1.2,77,0.00,CLR,,0.05,0.0,WeatherDisplay:10.37,2013-03-08 04:11:00,
2013-03-07 22:16:00,23.9,17.7,30.44,East,101,0.0,0.0,77,0.00,CLR,,0.05,0.0,WeatherDisplay:10.37,2013-03-08 04:16:00,
2013-03-07 22:21:00,23.9,17.7,30.44,ESE,111,1.8,4.8,77,0.00,CLR,,0.05,0.0,WeatherDisplay:10.37,2013-03-08 04:21:00,
2013-03-07 22:26:00,23.8,17.6,30.44,ESE,111,0.0,0.0,77,0.00,CLR,,0.05,0.0,WeatherDisplay:10.37,2013-03-08 04:26:00,
2013-03-07 22:31:00,23.6,17.4,30.43,ESE,111,0.0,0.0,77,0.00,CLR,,0.05,0.0,WeatherDisplay:10.37,2013-03-08 04:31:00,
2013-03-07 22:36:00,23.6,17.7,30.43,ESE,111,0.0,0.0,78,0.00,CLR,,0.05,0.0,WeatherDisplay:10.37,2013-03-08 04:36:00,
2013-03-07 22:42:00,23.5,17.6,30.43,ESE,111,0.0,0.0,78,0.00,CLR,,0.05,0.0,WeatherDisplay:10.37,2013-03-08 04:42:00,
2013-03-07 22:47:00,23.3,17.5,30.44,ESE,111,0.0,0.0,78,0.00,CLR,,0.05,0.0,WeatherDisplay:10.37,2013-03-08 04:47:00,
2013-03-07 22:52:00,23.2,17.4,30.44,ESE,111,0.0,0.0,78,0.00,CLR,,0.05,0.0,WeatherDisplay:10.37,2013-03-08 04:52:00,
2013-03-07 22:57:00,22.5,16.7,30.44,ESE,111,0.0,0.0,78,0.00,CLR,,0.05,0.0,WeatherDisplay:10.37,2013-03-08 04:57:00,
2013-03-07 23:00:00,22.2,16.4,30.45,ESE,111,0.0,0.0,78,0.00,CLR,,0.05,0.0,WeatherDisplay:10.37,2013-03-08 05:00:00,
2013-03-07 23:01:00,22.2,16.4,30.45,ESE,111,0.0,0.0,78,0.00,CLR,,0.05,0.0,WeatherDisplay:10.37,2013-03-08 05:01:00,
2013-03-07 23:02:00,22.2,16.4,30.45,ESE,111,0.0,0.0,78,0.00,CLR,,0.05,0.0,WeatherDisplay:10.37,2013-03-08 05:02:00,
2013-03-07 23:07:00,22.1,16.6,30.45,ESE,111,0.0,0.0,79,0.00,CLR,,0.05,0.0,WeatherDisplay:10.37,2013-03-08 05:07:00,
2013-03-07 23:12:00,22.1,16.6,30.45,ESE,111,0.0,0.0,79,0.00,CLR,,0.05,0.0,WeatherDisplay:10.37,2013-03-08 05:12:00,
2013-03-07 23:17:00,21.9,16.4,30.46,ESE,111,0.0,0.0,79,0.00,CLR,,0.05,0.0,WeatherDisplay:10.37,2013-03-08 05:17:00,
2013-03-07 23:22:00,21.8,16.6,30.46,ESE,111,0.0,0.0,80,0.00,CLR,,0.05,0.0,WeatherDisplay:10.37,2013-03-08 05:22:00,
2013-03-07 23:27:00,21.6,16.4,30.46,ESE,111,0.0,0.0,80,0.00,CLR,,0.05,0.0,WeatherDisplay:10.37,2013-03-08 05:27:00,
2013-03-07 23:32:00,21.6,16.4,30.46,ESE,111,0.0,1.0,80,0.00,CLR,,0.05,0.0,WeatherDisplay:10.37,2013-03-08 05:32:00,
2013-03-07 23:37:00,21.6,16.4,30.46,ESE,111,0.0,0.0,80,0.00,CLR,,0.05,0.0,WeatherDisplay:10.37,2013-03-08 05:37:00,
2013-03-07 23:42:00,21.6,16.7,30.46,ESE,111,0.0,0.0,81,0.00,CLR,,0.05,0.0,WeatherDisplay:10.37,2013-03-08 05:42:00,
2013-03-07 23:47:00,21.6,16.7,30.46,ESE,111,0.0,0.0,81,0.00,CLR,,0.05,0.0,WeatherDisplay:10.37,2013-03-08 05:47:00,
2013-03-07 23:52:00,21.8,16.9,30.46,ESE,111,0.0,0.0,81,0.00,CLR,,0.05,0.0,WeatherDisplay:10.37,2013-03-08 05:52:00,
2013-03-07 23:57:00,21.6,16.7,30.46,ESE,111,0.0,0.0,81,0.00,CLR,,0.05,0.0,WeatherDisplay:10.37,2013-03-08 05:57:00,